createdAt,value
2022-12-14T00:00:04.433Z,73.37
2022-12-14T00:05:15.641Z,73.78
2022-12-14T00:10:17.042Z,73.81
2022-12-14T00:15:18.506Z,73.97
2022-12-14T00:20:20.130Z,73.92
2022-12-14T00:25:22.539Z,73.93
2022-12-14T00:30:23.991Z,73.88
2022-12-14T00:35:25.385Z,73.76
2022-12-14T00:40:26.788Z,73.74
2022-12-14T00:45:28.211Z,73.54
2022-12-14T00:50:29.607Z,73.67
2022-12-14T00:55:31.011Z,73.42
2022-12-14T01:00:32.926Z,73.78
2022-12-14T01:05:35.313Z,73.34
2022-12-14T01:10:40.293Z,73.78
2022-12-14T01:15:42.582Z,73.79
2022-12-14T01:20:43.998Z,73.43
2022-12-14T01:25:45.388Z,73.55
2022-12-14T01:30:50.423Z,73.84
2022-12-14T01:35:51.859Z,73.49
2022-12-14T01:40:57.708Z,73.64
2022-12-14T01:45:59.129Z,73.83
2022-12-14T01:51:00.551Z,73.81
2022-12-14T01:56:04.092Z,73.88
2022-12-14T02:01:05.780Z,73.75
2022-12-14T02:06:11.997Z,73.53
2022-12-14T02:11:13.592Z,73.92
2022-12-14T02:16:15.303Z,73.96
2022-12-14T02:21:30.179Z,73.80
2022-12-14T02:26:34.720Z,73.88
2022-12-14T02:32:12.250Z,73.75
2022-12-14T02:37:23.058Z,74.15
2022-12-14T02:42:41.116Z,74.44
2022-12-14T02:47:54.496Z,74.55
2022-12-14T02:53:02.031Z,74.51
2022-12-14T02:58:08.812Z,74.58
2022-12-14T03:03:10.200Z,74.66
2022-12-14T03:08:15.411Z,75.07
2022-12-14T03:13:23.938Z,74.92
2022-12-14T03:18:29.422Z,75.17
2022-12-14T03:23:34.866Z,75.51
2022-12-14T03:28:50.364Z,75.29
2022-12-14T03:33:55.536Z,75.22
2022-12-14T03:39:00.204Z,75.69
2022-12-14T03:44:04.515Z,75.43
2022-12-14T03:49:21.295Z,75.85
2022-12-14T03:54:28.642Z,75.23
2022-12-14T04:00:00.390Z,75.26
2022-12-14T04:05:12.843Z,75.78
2022-12-14T04:10:38.044Z,75.75
2022-12-14T04:16:00.892Z,75.91
2022-12-14T04:21:11.516Z,75.99
2022-12-14T04:26:17.416Z,75.71
2022-12-14T04:31:22.197Z,76.18
2022-12-14T04:36:32.777Z,75.69
2022-12-14T04:41:38.552Z,75.88
2022-12-14T04:46:41.112Z,75.62
2022-12-14T04:52:08.218Z,75.62
2022-12-14T04:57:37.211Z,75.10
2022-12-14T05:03:01.816Z,74.86
2022-12-14T05:08:50.223Z,75.45
2022-12-14T05:13:51.774Z,74.86
2022-12-14T05:18:53.237Z,74.53
2022-12-14T05:23:54.639Z,75.04
2022-12-14T05:28:56.709Z,74.44
2022-12-14T05:33:58.160Z,74.85
2022-12-14T05:38:59.662Z,74.68
2022-12-14T05:44:01.059Z,74.33
2022-12-14T05:49:02.733Z,74.28
2022-12-14T05:54:05.252Z,74.25
2022-12-14T05:59:06.766Z,74.59
2022-12-14T06:04:08.262Z,74.38
2022-12-14T06:09:11.024Z,74.57
2022-12-14T06:14:13.174Z,74.25
2022-12-14T06:19:15.355Z,74.65
2022-12-14T06:24:16.915Z,74.45
2022-12-14T06:29:19.669Z,74.74
2022-12-14T06:34:28.034Z,75.02
2022-12-14T06:39:30.051Z,74.76
2022-12-14T06:44:31.738Z,75.09
2022-12-14T06:49:33.246Z,74.82
2022-12-14T06:54:34.642Z,75.39
2022-12-14T06:59:36.040Z,75.45
2022-12-14T07:04:37.504Z,75.21
2022-12-14T07:09:39.235Z,75.04
2022-12-14T07:14:40.714Z,75.23
2022-12-14T07:19:45.022Z,75.62
2022-12-14T07:24:50.540Z,75.42
2022-12-14T07:29:52.287Z,75.83
2022-12-14T07:34:53.677Z,76.08
2022-12-14T07:39:55.090Z,75.94
2022-12-14T07:44:56.503Z,76.59
2022-12-14T07:49:57.945Z,76.88
2022-12-14T07:54:59.580Z,76.86
2022-12-14T08:00:00.984Z,77.13
2022-12-14T08:05:05.390Z,77.77
2022-12-14T08:10:10.637Z,77.62
2022-12-14T08:15:12.033Z,77.97
2022-12-14T08:20:13.572Z,78.23
2022-12-14T08:25:15.075Z,78.54
2022-12-14T08:30:16.650Z,78.71
2022-12-14T08:35:18.141Z,78.99
2022-12-14T08:40:19.583Z,79.16
2022-12-14T08:45:21.101Z,79.42
2022-12-14T08:50:22.528Z,79.58
2022-12-14T08:55:29.175Z,79.40
2022-12-14T09:00:33.011Z,79.99
2022-12-14T09:05:35.249Z,79.86
2022-12-14T09:10:36.661Z,79.99
2022-12-14T09:15:38.107Z,80.19
2022-12-14T09:20:39.644Z,80.33
2022-12-14T09:25:41.110Z,80.67
2022-12-14T09:30:42.521Z,80.72
2022-12-14T09:35:43.924Z,81.38
2022-12-14T09:40:55.722Z,81.06
2022-12-14T09:46:03.713Z,81.91
2022-12-14T09:51:05.404Z,82.42
2022-12-14T09:56:09.344Z,82.53
2022-12-14T10:01:23.161Z,83.46
2022-12-14T10:06:27.752Z,83.70
2022-12-14T10:11:47.920Z,84.04
2022-12-14T10:16:56.070Z,83.93
2022-12-14T10:22:02.646Z,83.99
2022-12-14T10:27:09.084Z,84.90
2022-12-14T10:32:10.463Z,85.28
2022-12-14T10:37:26.108Z,85.22
2022-12-14T10:42:30.554Z,84.96
2022-12-14T10:47:39.800Z,84.96
2022-12-14T10:52:44.247Z,84.65
2022-12-14T10:57:45.961Z,85.29
2022-12-14T11:02:54.650Z,85.16
2022-12-14T11:07:56.358Z,85.34
2022-12-14T11:13:12.996Z,85.53
2022-12-14T11:18:17.654Z,85.89
2022-12-14T11:23:25.216Z,85.41
2022-12-14T11:28:45.720Z,85.89
2022-12-14T11:33:54.511Z,85.50
2022-12-14T11:38:58.039Z,85.79
2022-12-14T11:44:05.810Z,85.85
2022-12-14T11:49:20.131Z,85.60
2022-12-14T11:54:21.539Z,85.71
2022-12-14T11:59:28.515Z,85.70
2022-12-14T12:04:30.166Z,85.80
2022-12-14T12:09:31.690Z,85.86
2022-12-14T12:14:37.052Z,86.03
2022-12-14T12:19:39.495Z,85.98
2022-12-14T12:25:24.101Z,86.04
2022-12-14T12:30:29.643Z,85.66
2022-12-14T12:35:54.047Z,85.63
2022-12-14T12:41:11.882Z,85.85
2022-12-14T12:46:20.220Z,85.50
2022-12-14T12:51:26.979Z,85.47
2022-12-14T12:56:48.072Z,84.97
2022-12-14T13:01:57.012Z,85.17
2022-12-14T13:07:06.172Z,85.09
2022-12-14T13:12:20.841Z,84.93
2022-12-14T13:17:40.022Z,84.93
2022-12-14T13:22:41.718Z,84.39
2022-12-14T13:28:03.703Z,84.58
2022-12-14T13:33:21.159Z,84.79
2022-12-14T13:39:03.486Z,84.69
2022-12-14T13:44:21.275Z,84.48
2022-12-14T13:49:25.192Z,84.31
2022-12-14T13:54:32.131Z,84.05
2022-12-14T13:59:41.560Z,84.00
2022-12-14T14:04:43.300Z,84.13
2022-12-14T14:09:56.997Z,83.93
2022-12-14T14:15:18.846Z,83.77
2022-12-14T14:20:31.765Z,83.57
2022-12-14T14:25:33.206Z,83.50
2022-12-14T14:30:56.535Z,83.06
2022-12-14T14:36:35.960Z,83.13
2022-12-14T14:41:43.341Z,83.02
2022-12-14T14:46:48.402Z,82.91
2022-12-14T14:51:50.187Z,82.71
2022-12-14T14:56:52.459Z,82.87
2022-12-14T15:02:01.364Z,82.76
2022-12-14T15:07:07.582Z,82.55
2022-12-14T15:12:33.144Z,82.62
2022-12-14T15:17:34.713Z,82.22
2022-12-14T15:22:42.490Z,82.16
2022-12-14T15:27:44.037Z,82.12
2022-12-14T15:32:57.003Z,82.13
2022-12-14T15:38:03.027Z,81.94
2022-12-14T15:43:19.893Z,82.00
2022-12-14T15:48:34.064Z,82.48
2022-12-14T15:53:49.893Z,82.20
2022-12-14T15:58:53.122Z,82.15
2022-12-14T16:03:58.707Z,82.17
2022-12-14T16:09:28.754Z,81.84
2022-12-14T16:14:44.050Z,81.73
2022-12-14T16:19:59.971Z,81.70
2022-12-14T16:25:08.296Z,81.66
2022-12-14T16:30:29.879Z,81.46
2022-12-14T16:35:34.615Z,81.53
2022-12-14T16:40:40.732Z,81.50
2022-12-14T16:45:42.248Z,81.52
2022-12-14T16:51:05.005Z,81.33
2022-12-14T16:56:14.167Z,80.86
2022-12-14T17:01:15.763Z,80.86
2022-12-14T17:06:24.975Z,80.64
2022-12-14T17:11:26.534Z,80.19
2022-12-14T17:16:28.017Z,80.02
2022-12-14T17:21:29.660Z,80.15
2022-12-14T17:26:32.061Z,80.45
2022-12-14T17:31:33.781Z,80.75
2022-12-14T17:36:35.503Z,80.97
2022-12-14T17:41:40.967Z,80.99
2022-12-14T17:46:43.852Z,80.70
2022-12-14T17:51:46.326Z,80.39
2022-12-14T17:56:47.727Z,80.51
2022-12-14T18:01:49.686Z,80.97
2022-12-14T18:06:51.452Z,80.49
2022-12-14T18:12:21.648Z,80.80
2022-12-14T18:17:14.621Z,80.97
2022-12-14T18:22:16.064Z,80.19
2022-12-14T18:27:17.487Z,80.04
2022-12-14T18:32:19.258Z,79.85
2022-12-14T18:37:24.494Z,79.79
2022-12-14T18:42:27.629Z,79.69
2022-12-14T18:47:43.045Z,79.42
2022-12-14T18:52:45.591Z,79.27
2022-12-14T18:57:49.656Z,78.97
2022-12-14T19:02:51.833Z,79.11
2022-12-14T19:07:53.615Z,79.71
2022-12-14T19:12:55.396Z,80.53
2022-12-14T19:17:56.940Z,81.16
2022-12-14T19:22:58.455Z,81.38
2022-12-14T19:28:26.084Z,81.32
2022-12-14T19:33:24.850Z,81.04
2022-12-14T19:38:26.309Z,80.91
2022-12-14T19:43:29.120Z,80.75
2022-12-14T19:48:30.880Z,80.85
2022-12-14T19:53:33.644Z,79.89
2022-12-14T19:58:35.684Z,79.52
2022-12-14T20:03:37.929Z,79.37
2022-12-14T20:08:39.686Z,79.13
2022-12-14T20:13:41.103Z,78.69
2022-12-14T20:18:42.916Z,77.57
2022-12-14T20:23:44.834Z,76.98
2022-12-14T20:28:47.787Z,77.26
2022-12-14T20:33:50.738Z,76.19
2022-12-14T20:38:57.531Z,75.73
2022-12-14T20:43:59.970Z,74.93
2022-12-14T20:49:04.684Z,74.54
2022-12-14T20:54:10.154Z,74.16
2022-12-14T20:59:11.663Z,73.45
2022-12-14T21:04:13.287Z,73.58
2022-12-14T21:09:15.077Z,73.13
2022-12-14T21:14:17.682Z,72.88
2022-12-14T21:19:19.563Z,74.01
2022-12-14T21:24:44.733Z,74.35
2022-12-14T21:29:45.305Z,74.49
2022-12-14T21:34:46.922Z,73.96
2022-12-14T21:39:54.116Z,73.66
2022-12-14T21:44:57.548Z,73.20
2022-12-14T21:49:59.022Z,73.05
2022-12-14T21:55:00.608Z,73.10
2022-12-14T22:00:03.952Z,71.90
2022-12-14T22:05:13.407Z,71.99
2022-12-14T22:10:16.753Z,72.20
2022-12-14T22:15:21.627Z,71.91
2022-12-14T22:20:23.035Z,71.63
2022-12-14T22:25:24.448Z,71.13
2022-12-14T22:30:31.617Z,71.10
2022-12-14T22:35:34.020Z,71.37
2022-12-14T22:40:35.498Z,71.41
2022-12-14T22:45:36.961Z,71.47
2022-12-14T22:50:38.396Z,71.55
2022-12-14T22:55:40.685Z,71.28
2022-12-14T23:00:42.168Z,71.16
2022-12-14T23:05:43.660Z,70.35
2022-12-14T23:11:03.792Z,70.84
2022-12-14T23:16:23.970Z,70.27
2022-12-14T23:21:44.042Z,70.04
2022-12-14T23:27:09.369Z,69.86
2022-12-14T23:32:30.303Z,69.85
2022-12-14T23:37:50.398Z,70.13
2022-12-14T23:43:10.508Z,70.68
2022-12-14T23:48:30.421Z,70.56
2022-12-14T23:53:50.728Z,70.56
2022-12-14T23:59:13.906Z,70.42
